Time;durP1;ratioP1;P1;durP2;ratioP2;P2;SDS_P1;SDS_P2;PMS_P1;PMS_P2;Temp;Humidity;BMP_temperature;BMP_pressure;BME280_temperature;BME280_humidity;BME280_pressure;Samples;Min_cycle;Max_cycle;Signal;HPM_P1;HPM_P2
2023/03/10 00:02:04;;;;;;;;;7.25;7.25;;;;;;;;5027824;28;13497;-73
2023/03/10 00:04:29;;;;;;;;;8.00;8.00;;;;;;;;5027826;28;13564;-74
2023/03/10 00:06:54;;;;;;;;;10.00;5.50;;;;;;;;5031323;28;8769;-73
2023/03/10 00:09:20;;;;;;;;;12.00;7.50;;;;;;;;5027650;28;14189;-72
2023/03/10 00:11:46;;;;;;;;;10.00;6.00;;;;;;;;5028042;28;13503;-73
2023/03/10 00:14:11;;;;;;;;;6.00;6.00;;;;;;;;5026774;28;13466;-74
2023/03/10 00:16:36;;;;;;;;;5.75;5.75;;;;;;;;5031167;28;8790;-74
2023/03/10 00:19:02;;;;;;;;;5.75;5.25;;;;;;;;5027823;28;13980;-74
2023/03/10 00:21:28;;;;;;;;;8.00;5.00;;;;;;;;5030841;28;9631;-74
2023/03/10 00:23:54;;;;;;;;;6.00;6.00;;;;;;;;5027953;28;13459;-74
2023/03/10 00:26:20;;;;;;;;;12.00;9.00;;;;;;;;5027380;28;14080;-73
2023/03/10 00:28:45;;;;;;;;;11.00;8.75;;;;;;;;5027246;28;13651;-73
2023/03/10 00:31:12;;;;;;;;;6.50;5.50;;;;;;;;5031004;28;8805;-73
2023/03/10 00:33:37;;;;;;;;;7.75;5.25;;;;;;;;5027867;28;14189;-74
2023/03/10 00:36:06;;;;;;;;;7.00;5.00;;;;;;;;5027573;28;13493;-73
2023/03/10 00:38:31;;;;;;;;;9.25;8.00;;;;;;;;5031018;28;8797;-73
2023/03/10 00:41:00;;;;;;;;;10.75;7.25;;;;;;;;5027419;28;14243;-73
2023/03/10 00:43:26;;;;;;;;;12.00;12.00;;;;;;;;5026915;28;14568;-73
2023/03/10 00:45:52;;;;;;;;;10.50;8.00;;;;;;;;5026079;28;13499;-73
2023/03/10 00:48:17;;;;;;;;;10.50;10.50;;;;;;;;5026733;28;13641;-73
2023/03/10 00:50:42;;;;;;;;;9.50;6.50;;;;;;;;5030131;28;9026;-74
2023/03/10 00:53:07;;;;;;;;;10.50;8.25;;;;;;;;5026196;28;13430;-74
2023/03/10 00:55:33;;;;;;;;;7.75;7.25;;;;;;;;5027218;28;14352;-74
2023/03/10 00:57:58;;;;;;;;;11.67;10.33;;;;;;;;5026847;28;13410;-73
2023/03/10 01:00:23;;;;;;;;;9.00;7.75;;;;;;;;5027026;28;13523;-73
2023/03/10 01:02:50;;;;;;;;;9.50;8.00;;;;;;;;5030337;28;9630;-73
2023/03/10 01:05:15;;;;;;;;;8.00;5.75;;;;;;;;5030235;28;8917;-72
2023/03/10 01:07:40;;;;;;;;;10.50;10.00;;;;;;;;5026384;28;13589;-72
2023/03/10 01:10:06;;;;;;;;;14.00;9.00;;;;;;;;5026595;28;13499;-73
2023/03/10 01:12:31;;;;;;;;;7.00;6.00;;;;;;;;5026873;28;13463;-73
2023/03/10 01:14:56;;;;;;;;;13.75;11.25;;;;;;;;5026562;28;13436;-73
2023/03/10 01:17:22;;;;;;;;;11.75;11.75;;;;;;;;5026373;28;14156;-73
2023/03/10 01:19:47;;;;;;;;;12.67;11.00;;;;;;;;5026238;28;13442;-72
2023/03/10 01:22:12;;;;;;;;;11.00;8.25;;;;;;;;5020145;23;13599;-70
2023/03/10 01:24:37;;;;;;;;;12.00;8.00;;;;;;;;4969321;28;13527;-70
2023/03/10 01:27:02;;;;;;;;;;;;;;;;;;4975542;28;8805;-69
2023/03/10 01:29:28;;;;;;;;;5.20;5.20;;;;;;;;4973255;28;8901;-70
2023/03/10 01:31:53;;;;;;;;;7.00;7.00;;;;;;;;4968974;28;13576;-70
2023/03/10 01:34:18;;;;;;;;;7.75;6.00;;;;;;;;4969427;28;13509;-69
2023/03/10 01:36:43;;;;;;;;;9.00;7.25;;;;;;;;4967498;28;13497;-70
2023/03/10 01:39:09;;;;;;;;;13.25;9.00;;;;;;;;4969149;28;13504;-69
2023/03/10 01:41:36;;;;;;;;;3.25;2.75;;;;;;;;4969276;28;13652;-70
2023/03/10 01:44:03;;;;;;;;;6.25;4.50;;;;;;;;4971414;28;8813;-70
2023/03/10 01:46:28;;;;;;;;;11.00;9.50;;;;;;;;4968975;28;13504;-69
2023/03/10 01:48:55;;;;;;;;;10.25;6.50;;;;;;;;4969025;28;14256;-69
2023/03/10 01:51:21;;;;;;;;;4.00;4.00;;;;;;;;4972558;28;8797;-69
2023/03/10 01:53:46;;;;;;;;;5.00;5.00;;;;;;;;4972310;28;11614;-70
2023/03/10 01:56:12;;;;;;;;;7.50;5.00;;;;;;;;4969110;28;13479;-69
2023/03/10 01:58:41;;;;;;;;;6.25;6.25;;;;;;;;4969042;28;13696;-69
2023/03/10 02:01:07;;;;;;;;;9.00;9.00;;;;;;;;4968478;28;13563;-69
2023/03/10 02:03:32;;;;;;;;;;;;;;;;;;4973058;28;9006;-70
2023/03/10 02:06:03;;;;;;;;;10.60;5.00;;;;;;;;4970778;28;7514;-69
2023/03/10 02:08:30;;;;;;;;;9.50;8.50;;;;;;;;4968651;28;13477;-69
2023/03/10 02:10:56;;;;;;;;;8.75;7.75;;;;;;;;4968665;28;13473;-69
2023/03/10 02:13:21;;;;;;;;;8.60;8.60;;;;;;;;4968582;28;15024;-69
2023/03/10 02:15:47;;;;;;;;;9.00;7.33;;;;;;;;4968591;28;14131;-69
2023/03/10 02:18:14;;;;;;;;;16.00;13.00;;;;;;;;4968322;28;13579;-70
2023/03/10 02:20:47;;;;;;;;;9.40;8.20;;;;;;;;4968465;28;13651;-69
2023/03/10 02:23:16;;;;;;;;;10.75;7.00;;;;;;;;4969174;28;14323;-69
2023/03/10 02:25:47;;;;;;;;;8.00;6.00;;;;;;;;4970671;28;11532;-69
2023/03/10 02:28:12;;;;;;;;;14.00;12.00;;;;;;;;4966791;28;13556;-69
2023/03/10 02:30:40;;;;;;;;;9.00;9.00;;;;;;;;4966764;28;13619;-70
2023/03/10 02:33:08;;;;;;;;;10.00;8.50;;;;;;;;4967111;28;14149;-69
2023/03/10 02:35:34;;;;;;;;;7.00;6.00;;;;;;;;4967271;28;13502;-69
2023/03/10 02:37:59;;;;;;;;;11.00;9.25;;;;;;;;4968255;28;13552;-69
2023/03/10 02:40:28;;;;;;;;;11.00;9.00;;;;;;;;4968045;28;13593;-69
2023/03/10 02:42:54;;;;;;;;;8.00;7.25;;;;;;;;4968159;28;13714;-70
2023/03/10 02:45:19;;;;;;;;;5.00;4.25;;;;;;;;4971556;28;11577;-69
2023/03/10 02:47:44;;;;;;;;;11.00;11.00;;;;;;;;4967985;28;14143;-69
2023/03/10 02:50:12;;;;;;;;;8.00;8.00;;;;;;;;4968254;28;13549;-69
2023/03/10 02:52:37;;;;;;;;;;;;;;;;;;4974348;28;8895;-69
2023/03/10 02:55:03;;;;;;;;;4.00;1.00;;;;;;;;4971606;28;8821;-69
2023/03/10 02:57:28;;;;;;;;;6.00;6.00;;;;;;;;4968048;28;13578;-70
2023/03/10 02:59:53;;;;;;;;;5.25;5.00;;;;;;;;4968183;28;14210;-70
2023/03/10 03:02:18;;;;;;;;;10.50;7.75;;;;;;;;4966962;28;13493;-69
2023/03/10 03:04:43;;;;;;;;;8.00;8.00;;;;;;;;4967906;28;13504;-69
2023/03/10 03:07:09;;;;;;;;;;;;;;;;;;4974049;28;8789;-69
2023/03/10 03:09:34;;;;;;;;;4.80;4.80;;;;;;;;4971750;28;8825;-69
2023/03/10 03:12:00;;;;;;;;;;;;;;;;;;4974052;28;8789;-69
2023/03/10 03:14:25;;;;;;;;;6.00;6.00;;;;;;;;4971574;28;9594;-69
2023/03/10 03:16:50;;;;;;;;;14.25;7.00;;;;;;;;4971876;28;13491;-69
2023/03/10 03:19:16;;;;;;;;;6.50;5.75;;;;;;;;4974968;28;8797;-69
2023/03/10 03:21:41;;;;;;;;;8.25;8.00;;;;;;;;4975356;28;8836;-69
2023/03/10 03:24:06;;;;;;;;;10.00;8.00;;;;;;;;4971442;28;13476;-69
2023/03/10 03:26:31;;;;;;;;;11.50;11.00;;;;;;;;4971258;28;13687;-69
2023/03/10 03:28:57;;;;;;;;;7.00;5.25;;;;;;;;4971527;28;13566;-69
2023/03/10 03:31:23;;;;;;;;;13.33;9.00;;;;;;;;4971162;28;15065;-69
2023/03/10 03:33:49;;;;;;;;;6.00;5.75;;;;;;;;4971727;28;13557;-69
2023/03/10 03:36:14;;;;;;;;;7.50;6.00;;;;;;;;4971559;28;13505;-69
2023/03/10 03:38:40;;;;;;;;;8.50;8.50;;;;;;;;4971414;28;13501;-69
2023/03/10 03:41:05;;;;;;;;;5.50;5.00;;;;;;;;4974618;28;8790;-69
2023/03/10 03:43:31;;;;;;;;;7.75;7.00;;;;;;;;4971284;28;13521;-69
2023/03/10 03:45:56;;;;;;;;;11.00;9.00;;;;;;;;4970832;28;14142;-69
2023/03/10 03:48:22;;;;;;;;;13.00;11.67;;;;;;;;4970838;28;13532;-69
2023/03/10 03:50:47;;;;;;;;;11.67;9.00;;;;;;;;4970866;28;13544;-69
2023/03/10 03:53:13;;;;;;;;;11.00;9.67;;;;;;;;4970887;28;13435;-69
2023/03/10 03:55:38;;;;;;;;;6.25;6.25;;;;;;;;4971448;28;13527;-69
2023/03/10 03:58:03;;;;;;;;;8.00;8.00;;;;;;;;4970805;28;14441;-69
2023/03/10 04:00:29;;;;;;;;;8.00;8.00;;;;;;;;4974146;28;8821;-69
2023/03/10 04:02:55;;;;;;;;;4.00;4.00;;;;;;;;4974282;28;8793;-69
2023/03/10 04:05:20;;;;;;;;;11.20;6.40;;;;;;;;4970703;28;13492;-69
2023/03/10 04:07:47;;;;;;;;;6.33;6.33;;;;;;;;4970678;28;14248;-69
2023/03/10 04:10:13;;;;;;;;;6.50;6.50;;;;;;;;4970961;28;13491;-69
2023/03/10 04:12:38;;;;;;;;;7.80;7.80;;;;;;;;4970534;28;13448;-69
2023/03/10 04:15:04;;;;;;;;;9.00;7.67;;;;;;;;4970425;28;13539;-69
2023/03/10 04:17:29;;;;;;;;;8.00;6.50;;;;;;;;4972728;28;8829;-69
2023/03/10 04:19:54;;;;;;;;;13.00;12.00;;;;;;;;4970260;28;13593;-69
2023/03/10 04:22:20;;;;;;;;;10.00;6.00;;;;;;;;4970876;28;13565;-69
2023/03/10 04:24:45;;;;;;;;;6.00;4.25;;;;;;;;4973952;28;8793;-69
2023/03/10 04:27:10;;;;;;;;;6.00;5.00;;;;;;;;4973694;28;9553;-69
2023/03/10 04:29:36;;;;;;;;;11.00;11.00;;;;;;;;4969862;28;13538;-69
2023/03/10 04:32:02;;;;;;;;;11.25;6.25;;;;;;;;4970513;28;13645;-69
2023/03/10 04:34:27;;;;;;;;;11.00;8.67;;;;;;;;4970173;28;13526;-69
2023/03/10 04:36:52;;;;;;;;;9.75;6.00;;;;;;;;4973591;28;8793;-69
2023/03/10 04:39:18;;;;;;;;;11.75;9.50;;;;;;;;4969795;28;13572;-69
2023/03/10 04:41:43;;;;;;;;;12.00;11.00;;;;;;;;4969866;28;13711;-69
2023/03/10 04:44:08;;;;;;;;;;;;;;;;;;4975397;28;8966;-69
2023/03/10 04:46:34;;;;;;;;;4.50;4.00;;;;;;;;4972240;28;8823;-69
2023/03/10 04:48:59;;;;;;;;;5.00;5.00;;;;;;;;4970254;28;13597;-69
2023/03/10 04:51:24;;;;;;;;;7.25;7.25;;;;;;;;4968805;28;14310;-69
2023/03/10 04:53:49;;;;;;;;;14.50;13.00;;;;;;;;4969792;28;14352;-69
2023/03/10 04:56:15;;;;;;;;;8.25;6.25;;;;;;;;4970079;28;13563;-69
2023/03/10 04:58:40;;;;;;;;;7.50;4.50;;;;;;;;4973116;28;8817;-69
2023/03/10 05:01:09;;;;;;;;;12.75;12.00;;;;;;;;4985353;28;13477;-71
2023/03/10 05:03:35;;;;;;;;;11.00;9.00;;;;;;;;4988943;28;13540;-71
2023/03/10 05:06:00;;;;;;;;;7.50;5.25;;;;;;;;4991242;28;8816;-70
2023/03/10 05:08:25;;;;;;;;;7.00;7.00;;;;;;;;4968491;28;13638;-69
2023/03/10 05:10:50;;;;;;;;;;;;;;;;;;4975584;28;8915;-69
2023/03/10 05:13:16;;;;;;;;;5.00;4.60;;;;;;;;4955157;28;8823;-69
2023/03/10 05:15:41;;;;;;;;;5.50;5.25;;;;;;;;4953680;28;8804;-69
2023/03/10 05:18:08;;;;;;;;;5.00;5.00;;;;;;;;4953704;28;8816;-69
2023/03/10 05:20:33;;;;;;;;;7.50;5.00;;;;;;;;4958589;28;14514;-70
2023/03/10 05:22:58;;;;;;;;;10.50;8.00;;;;;;;;4958006;28;13657;-71
2023/03/10 05:25:24;;;;;;;;;9.33;8.33;;;;;;;;4959540;28;13612;-70
2023/03/10 05:27:49;;;;;;;;;15.25;8.25;;;;;;;;4959278;28;13541;-71
2023/03/10 05:30:15;;;;;;;;;9.00;9.00;;;;;;;;4957870;28;13516;-71
2023/03/10 05:32:40;;;;;;;;;;;;;;;;;;4966736;28;8863;-70
2023/03/10 05:35:05;;;;;;;;;5.00;5.00;;;;;;;;4971255;28;8825;-70
2023/03/10 05:37:32;;;;;;;;;12.50;11.00;;;;;;;;4949159;28;14486;-69
2023/03/10 05:39:58;;;;;;;;;7.00;5.25;;;;;;;;4968447;28;8805;-68
2023/03/10 05:42:23;;;;;;;;;11.20;8.00;;;;;;;;4965619;28;13542;-70
2023/03/10 05:44:48;;;;;;;;;5.75;5.75;;;;;;;;4958628;28;13517;-69
2023/03/10 05:47:17;;;;;;;;;;;;;;;;;;4965118;28;8904;-70
2023/03/10 05:49:43;;;;;;;;;5.75;4.75;;;;;;;;4962103;28;8813;-70
2023/03/10 05:52:08;;;;;;;;;7.75;7.75;;;;;;;;4957120;28;13553;-69
2023/03/10 05:54:33;;;;;;;;;13.00;9.00;;;;;;;;4959414;28;13540;-70
2023/03/10 05:56:58;;;;;;;;;8.67;8.67;;;;;;;;4954817;28;14283;-70
2023/03/10 05:59:24;;;;;;;;;23.00;23.00;;;;;;;;4949223;28;13522;-69
2023/03/10 06:01:50;;;;;;;;;26.50;21.50;;;;;;;;4965907;28;13608;-69
2023/03/10 06:04:15;;;;;;;;;16.50;15.75;;;;;;;;4972035;28;8797;-69
2023/03/10 06:06:40;;;;;;;;;8.50;7.75;;;;;;;;4968718;28;13859;-70
2023/03/10 06:09:06;;;;;;;;;6.50;6.00;;;;;;;;4968619;28;13670;-71
2023/03/10 06:11:32;;;;;;;;;;;;;;;;;;4966256;28;8820;-70
2023/03/10 06:13:57;;;;;;;;;6.25;4.25;;;;;;;;4959991;28;8804;-70
2023/03/10 06:16:23;;;;;;;;;8.50;8.00;;;;;;;;4963623;28;11498;-71
2023/03/10 06:18:51;;;;;;;;;13.00;9.00;;;;;;;;4956723;28;13504;-71
2023/03/10 06:21:16;;;;;;;;;16.00;11.25;;;;;;;;4958110;28;14384;-69
2023/03/10 06:23:42;;;;;;;;;;;;;;;;;;4971839;28;8849;-71
2023/03/10 06:26:10;;;;;;;;;4.25;4.25;;;;;;;;4969411;28;8963;-81
2023/03/10 06:28:35;;;;;;;;;;;;;;;;;;4972383;28;9031;-70
2023/03/10 06:31:02;;;;;;;;;5.75;5.00;;;;;;;;4966676;28;8849;-69
2023/03/10 06:33:30;;;;;;;;;13.50;7.25;;;;;;;;4968439;28;13470;-71
2023/03/10 06:35:55;;;;;;;;;9.00;8.00;;;;;;;;4971631;28;11593;-73
2023/03/10 06:38:20;;;;;;;;;;;;;;;;;;4985919;28;11584;-79
2023/03/10 06:40:45;;;;;;;;;10.60;5.60;;;;;;;;4969312;28;8879;-74
2023/03/10 06:43:11;;;;;;;;;16.00;13.00;;;;;;;;4967471;28;14296;-74
2023/03/10 06:45:36;;;;;;;;;20.25;20.25;;;;;;;;4963693;28;8825;-73
2023/03/10 06:48:02;;;;;;;;;14.00;10.75;;;;;;;;4952378;28;13678;-75
2023/03/10 06:50:27;;;;;;;;;14.50;7.75;;;;;;;;4950818;28;13573;-75
2023/03/10 06:52:52;;;;;;;;;17.00;11.00;;;;;;;;4966970;28;13654;-76
2023/03/10 06:55:18;;;;;;;;;5.50;5.00;;;;;;;;4955753;28;8815;-76
2023/03/10 06:57:43;;;;;;;;;8.75;5.75;;;;;;;;4956064;28;8823;-77
2023/03/10 07:00:11;;;;;;;;;10.25;8.00;;;;;;;;4957603;28;13549;-75
2023/03/10 07:02:37;;;;;;;;;11.50;7.50;;;;;;;;4964218;28;8847;-74
2023/03/10 07:05:03;;;;;;;;;9.00;6.00;;;;;;;;4971641;28;11503;-74
2023/03/10 07:07:28;;;;;;;;;6.00;6.00;;;;;;;;4975060;28;11459;-74
2023/03/10 07:09:56;;;;;;;;;7.50;6.25;;;;;;;;4971183;28;13515;-72
2023/03/10 07:12:21;;;;;;;;;5.75;4.00;;;;;;;;4975162;28;8825;-74
2023/03/10 07:14:46;;;;;;;;;7.50;5.75;;;;;;;;4971347;28;13535;-75
2023/03/10 07:17:12;;;;;;;;;6.00;4.00;;;;;;;;4964769;28;9650;-75
2023/03/10 07:19:37;;;;;;;;;;;;;;;;;;4962169;28;8844;-75
2023/03/10 07:22:02;;;;;;;;;2.00;2.00;;;;;;;;4956010;28;8932;-73
2023/03/10 07:24:27;;;;;;;;;;;;;;;;;;4975527;28;9551;-73
2023/03/10 07:26:52;;;;;;;;;9.00;6.20;;;;;;;;4971307;28;8813;-79
2023/03/10 07:29:18;;;;;;;;;8.75;7.25;;;;;;;;4972341;28;8833;-74
2023/03/10 07:31:43;;;;;;;;;5.00;5.00;;;;;;;;4974772;28;8797;-74
2023/03/10 07:34:08;;;;;;;;;8.25;7.25;;;;;;;;4973911;28;8825;-73
2023/03/10 07:36:34;;;;;;;;;5.75;5.75;;;;;;;;4971020;28;13577;-75
2023/03/10 07:38:59;;;;;;;;;11.67;8.67;;;;;;;;4974624;28;13523;-76
2023/03/10 07:41:24;;;;;;;;;44.50;40.25;;;;;;;;4992577;28;8838;-73
2023/03/10 07:43:51;;;;;;;;;36.75;27.50;;;;;;;;4993500;28;8899;-69
2023/03/10 07:46:16;;;;;;;;;;;;;;;;;;4996153;28;8941;-69
2023/03/10 07:48:42;;;;;;;;;21.00;19.50;;;;;;;;4993533;28;8854;-70
2023/03/10 07:51:08;;;;;;;;;48.00;42.75;;;;;;;;4989763;28;13521;-70
2023/03/10 07:53:33;;;;;;;;;;;;;;;;;;4994206;28;8795;-71
2023/03/10 07:55:58;;;;;;;;;12.50;8.50;;;;;;;;4975157;28;8813;-70
2023/03/10 07:58:24;;;;;;;;;6.00;5.00;;;;;;;;4971973;28;8817;-71
2023/03/10 08:00:53;;;;;;;;;9.00;6.75;;;;;;;;4963590;28;13554;-71
2023/03/10 08:03:18;;;;;;;;;5.00;5.00;;;;;;;;4966781;28;8817;-71
2023/03/10 08:05:43;;;;;;;;;12.25;10.00;;;;;;;;4960264;28;13547;-71
2023/03/10 08:08:08;;;;;;;;;;;;;;;;;;4963713;28;8832;-72
2023/03/10 08:10:33;;;;;;;;;5.00;5.00;;;;;;;;4968090;28;8793;-72
2023/03/10 08:12:59;;;;;;;;;11.00;10.00;;;;;;;;4959219;28;13511;-72
2023/03/10 08:15:25;;;;;;;;;8.00;6.00;;;;;;;;4966869;28;13560;-73
2023/03/10 08:17:50;;;;;;;;;5.50;5.25;;;;;;;;4989710;28;13577;-73
2023/03/10 08:20:16;;;;;;;;;8.00;6.00;;;;;;;;4989839;28;13702;-73
2023/03/10 08:22:41;;;;;;;;;12.00;9.00;;;;;;;;4988234;28;13641;-74
2023/03/10 08:25:06;;;;;;;;;11.50;9.50;;;;;;;;4987645;28;14277;-73
2023/03/10 08:27:32;;;;;;;;;9.00;8.00;;;;;;;;4989284;28;13512;-71
2023/03/10 08:29:57;;;;;;;;;8.50;7.00;;;;;;;;4991554;28;8945;-71
2023/03/10 08:32:22;;;;;;;;;6.00;4.50;;;;;;;;4990911;28;13460;-71
2023/03/10 08:34:48;;;;;;;;;6.00;6.00;;;;;;;;4991006;28;8946;-72
2023/03/10 08:37:13;;;;;;;;;7.75;7.75;;;;;;;;4988833;28;13619;-72
2023/03/10 08:39:38;;;;;;;;;8.67;8.67;;;;;;;;4988745;28;13635;-72
2023/03/10 08:42:04;;;;;;;;;7.25;6.75;;;;;;;;4989223;28;13334;-70
2023/03/10 08:44:29;;;;;;;;;9.00;4.00;;;;;;;;4986244;28;13459;-69
2023/03/10 08:46:54;;;;;;;;;7.00;4.00;;;;;;;;4984477;28;14369;-70
2023/03/10 08:49:20;;;;;;;;;4.00;3.00;;;;;;;;4965348;28;13564;-72
2023/03/10 08:51:46;;;;;;;;;7.00;4.00;;;;;;;;4958432;28;13706;-71
2023/03/10 08:54:12;;;;;;;;;14.00;9.25;;;;;;;;4956856;28;13645;-71
2023/03/10 08:56:38;;;;;;;;;11.75;10.25;;;;;;;;4959202;28;13521;-70
2023/03/10 08:59:03;;;;;;;;;7.25;6.00;;;;;;;;4957701;28;13585;-72
2023/03/10 09:01:30;;;;;;;;;7.75;7.00;;;;;;;;4957287;28;13562;-72
2023/03/10 09:03:56;;;;;;;;;5.00;5.00;;;;;;;;4964748;28;14317;-71
2023/03/10 09:06:21;;;;;;;;;5.00;4.00;;;;;;;;4966049;28;13618;-73
2023/03/10 09:08:49;;;;;;;;;4.00;4.00;;;;;;;;4972027;28;13549;-73
2023/03/10 09:11:16;;;;;;;;;5.60;4.00;;;;;;;;4988625;28;14300;-73
2023/03/10 09:13:41;;;;;;;;;6.00;4.00;;;;;;;;4987298;28;13616;-73
2023/03/10 09:16:08;;;;;;;;;7.00;3.25;;;;;;;;4970769;28;13629;-73
2023/03/10 09:18:33;;;;;;;;;14.60;11.60;;;;;;;;4968861;28;13734;-73
2023/03/10 09:20:58;;;;;;;;;4.00;4.00;;;;;;;;4984025;28;13684;-73
2023/03/10 09:23:24;;;;;;;;;8.33;3.00;;;;;;;;4967346;28;13641;-71
2023/03/10 09:25:49;;;;;;;;;6.25;6.25;;;;;;;;4966521;28;14173;-72
2023/03/10 09:28:14;;;;;;;;;4.50;3.00;;;;;;;;4968883;28;13535;-71
2023/03/10 09:30:41;;;;;;;;;7.00;6.25;;;;;;;;4967800;28;14957;-72
2023/03/10 09:33:12;;;;;;;;;3.00;2.00;;;;;;;;4968193;28;13560;-75
2023/03/10 09:35:37;;;;;;;;;3.20;3.00;;;;;;;;4973123;28;13570;-74
2023/03/10 09:38:02;;;;;;;;;6.00;6.00;;;;;;;;4978924;28;13532;-75
2023/03/10 09:40:28;;;;;;;;;2.00;2.00;;;;;;;;4982893;28;13497;-74
2023/03/10 09:43:02;;;;;;;;;3.50;2.75;;;;;;;;4986922;28;13388;-73
2023/03/10 09:45:27;;;;;;;;;3.80;3.80;;;;;;;;4976639;28;13559;-74
2023/03/10 09:48:04;;;;;;;;;9.00;2.00;;;;;;;;4954935;28;13511;-72
2023/03/10 09:50:33;;;;;;;;;2.25;2.25;;;;;;;;4968393;28;13596;-72
2023/03/10 09:53:03;;;;;;;;;7.20;3.00;;;;;;;;4968235;28;13691;-70
2023/03/10 09:55:33;;;;;;;;;9.20;2.20;;;;;;;;4989308;28;13440;-89
2023/03/10 09:57:58;;;;;;;;;3.75;3.75;;;;;;;;4985510;28;13669;-73
2023/03/10 10:00:27;;;;;;;;;3.00;1.25;;;;;;;;4987879;28;13767;-74
2023/03/10 10:02:57;;;;;;;;;2.00;2.00;;;;;;;;4987754;28;13604;-74
2023/03/10 10:05:30;;;;;;;;;3.25;3.25;;;;;;;;4987443;28;13584;-72
2023/03/10 10:07:56;;;;;;;;;1.20;1.00;;;;;;;;4986041;28;13559;-72
2023/03/10 10:10:28;;;;;;;;;2.00;2.00;;;;;;;;5002862;28;14258;-74
2023/03/10 10:12:57;;;;;;;;;4.20;4.20;;;;;;;;5007230;28;13639;-72
2023/03/10 10:15:24;;;;;;;;;2.00;2.00;;;;;;;;5003252;28;14322;-74
2023/03/10 10:18:01;;;;;;;;;3.75;3.75;;;;;;;;4985952;28;13546;-72
2023/03/10 10:20:38;;;;;;;;;3.00;2.00;;;;;;;;4987575;28;13502;-73
2023/03/10 10:23:22;;;;;;;;;3.75;2.00;;;;;;;;4987720;28;13632;-74
2023/03/10 10:25:48;;;;;;;;;7.20;6.00;;;;;;;;4986742;28;13545;-74
2023/03/10 10:28:22;;;;;;;;;2.33;2.33;;;;;;;;4985737;28;13523;-73
2023/03/10 10:30:48;;;;;;;;;5.50;2.00;;;;;;;;4987807;28;13288;-73
2023/03/10 10:33:14;;;;;;;;;3.00;3.00;;;;;;;;4998939;28;14200;-71
2023/03/10 10:35:57;;;;;;;;;4.00;3.00;;;;;;;;4986895;28;13504;-71
2023/03/10 10:38:24;;;;;;;;;5.00;3.50;;;;;;;;4987087;28;13496;-70
2023/03/10 10:40:58;;;;;;;;;4.40;4.00;;;;;;;;4992234;28;13566;-69
2023/03/10 10:43:24;;;;;;;;;4.25;3.00;;;;;;;;4986942;28;14248;-73
2023/03/10 10:45:53;;;;;;;;;1.75;1.75;;;;;;;;4987410;28;13494;-72
2023/03/10 10:48:31;;;;;;;;;3.00;2.00;;;;;;;;4987247;28;13544;-72
2023/03/10 10:50:56;;;;;;;;;;;;;;;;;;4993316;28;8936;-72
2023/03/10 10:53:23;;;;;;;;;4.00;2.00;;;;;;;;4990930;28;8825;-72
2023/03/10 10:56:02;;;;;;;;;3.00;2.40;;;;;;;;4986141;28;14279;-71
2023/03/10 10:58:30;;;;;;;;;0.50;0.50;;;;;;;;4987555;28;13679;-72
2023/03/10 11:00:57;;;;;;;;;2.40;2.40;;;;;;;;4987005;28;13285;-73
2023/03/10 11:03:32;;;;;;;;;5.20;4.20;;;;;;;;4975739;28;13520;-71
2023/03/10 11:05:59;;;;;;;;;4.00;1.00;;;;;;;;4980406;28;8805;-71
2023/03/10 11:08:31;;;;;;;;;4.00;4.00;;;;;;;;4975052;28;13351;-72
2023/03/10 11:11:05;;;;;;;;;1.25;1.25;;;;;;;;4975978;28;13546;-72
2023/03/10 11:13:36;;;;;;;;;2.00;1.00;;;;;;;;4979367;28;13243;-71
2023/03/10 11:16:01;;;;;;;;;5.50;2.00;;;;;;;;4976839;28;14100;-71
2023/03/10 11:18:31;;;;;;;;;4.00;2.75;;;;;;;;4968852;28;13610;-74
2023/03/10 11:20:56;;;;;;;;;3.00;2.00;;;;;;;;4967678;28;13621;-71
2023/03/10 11:23:27;;;;;;;;;3.00;2.00;;;;;;;;4967408;28;13700;-72
2023/03/10 11:25:53;;;;;;;;;5.75;5.00;;;;;;;;4967558;28;14280;-73
2023/03/10 11:28:32;;;;;;;;;2.50;2.00;;;;;;;;4982065;28;8860;-73
2023/03/10 11:31:07;;;;;;;;;8.00;4.00;;;;;;;;4987212;28;13539;-72
2023/03/10 11:33:38;;;;;;;;;4.25;3.00;;;;;;;;4986687;28;14830;-76
2023/03/10 11:36:19;;;;;;;;;6.00;3.00;;;;;;;;4979586;28;14558;-71
2023/03/10 11:38:47;;;;;;;;;3.40;3.40;;;;;;;;4983277;28;13535;-71
2023/03/10 11:41:13;;;;;;;;;4.00;1.50;;;;;;;;4981533;28;8874;-71
2023/03/10 11:43:52;;;;;;;;;8.00;5.20;;;;;;;;4978502;28;13980;-72
2023/03/10 11:46:29;;;;;;;;;4.25;4.00;;;;;;;;4976630;28;13686;-72
2023/03/10 11:49:09;;;;;;;;;4.00;3.00;;;;;;;;4980020;28;13566;-72
2023/03/10 11:51:34;;;;;;;;;;;;;;;;;;4976538;28;8910;-75
2023/03/10 11:54:03;;;;;;;;;2.00;1.00;;;;;;;;4974064;28;7530;-71
2023/03/10 11:56:28;;;;;;;;;4.00;4.00;;;;;;;;4970654;28;13565;-76
2023/03/10 11:58:59;;;;;;;;;4.00;3.00;;;;;;;;4971480;28;13557;-72
2023/03/10 12:01:40;;;;;;;;;1.75;1.00;;;;;;;;4992307;28;8847;-72
2023/03/10 12:04:06;;;;;;;;;4.00;4.00;;;;;;;;4988750;28;13422;-72
2023/03/10 12:06:35;;;;;;;;;4.00;3.80;;;;;;;;4988399;28;13825;-70
2023/03/10 12:09:02;;;;;;;;;8.00;5.00;;;;;;;;4991448;28;13809;-70
2023/03/10 12:11:27;;;;;;;;;;;;;;;;;;4986551;28;8831;-69
2023/03/10 12:13:56;;;;;;;;;3.25;2.75;;;;;;;;4980899;28;7537;-70
2023/03/10 12:16:23;;;;;;;;;8.00;5.00;;;;;;;;4969670;28;13710;-68
2023/03/10 12:18:48;;;;;;;;;11.00;6.25;;;;;;;;4970108;28;14212;-68
2023/03/10 12:21:15;;;;;;;;;5.75;4.75;;;;;;;;4982878;28;13488;-70
2023/03/10 12:23:42;;;;;;;;;7.75;5.25;;;;;;;;4989260;28;13580;-70
2023/03/10 12:26:08;;;;;;;;;5.80;5.40;;;;;;;;4988433;28;14310;-70
2023/03/10 12:28:34;;;;;;;;;10.33;7.00;;;;;;;;4987672;28;14488;-71
2023/03/10 12:31:02;;;;;;;;;5.00;5.00;;;;;;;;4995350;28;13646;-70
2023/03/10 12:33:33;;;;;;;;;5.20;3.00;;;;;;;;5009087;28;13480;-71
2023/03/10 12:36:04;;;;;;;;;6.40;4.00;;;;;;;;4998927;28;13546;-71
2023/03/10 12:38:41;;;;;;;;;5.20;3.00;;;;;;;;4988104;28;13584;-72
2023/03/10 12:41:07;;;;;;;;;7.40;4.40;;;;;;;;4997588;28;14313;-70
2023/03/10 12:43:35;;;;;;;;;3.25;2.50;;;;;;;;4988410;28;14419;-71
2023/03/10 12:46:01;;;;;;;;;5.00;4.00;;;;;;;;4997129;28;13537;-71
2023/03/10 12:48:27;;;;;;;;;3.00;3.00;;;;;;;;5007334;28;13541;-71
2023/03/10 12:50:57;;;;;;;;;5.00;3.00;;;;;;;;4998358;28;14327;-71
2023/03/10 12:53:22;;;;;;;;;;;;;;;;;;4995224;28;8832;-71
2023/03/10 12:55:47;;;;;;;;;;;;;;;;;;4994076;28;8821;-71
2023/03/10 12:58:23;;;;;;;;;3.00;1.00;;;;;;;;4992374;28;8837;-72
2023/03/10 13:00:50;;;;;;;;;5.20;5.20;;;;;;;;4993240;28;14422;-72
2023/03/10 13:03:18;;;;;;;;;5.00;5.00;;;;;;;;5007507;28;13529;-71
2023/03/10 13:05:55;;;;;;;;;6.25;2.00;;;;;;;;5003096;28;13573;-71
2023/03/10 13:08:47;;;;;;;;;6.00;5.25;;;;;;;;4988349;28;13551;-72
2023/03/10 13:11:21;;;;;;;;;9.00;6.00;;;;;;;;4975747;28;14223;-76
2023/03/10 13:13:48;;;;;;;;;7.50;5.50;;;;;;;;4988756;28;14063;-75
2023/03/10 13:16:18;;;;;;;;;4.00;2.25;;;;;;;;5001354;28;8807;-70
2023/03/10 13:18:47;;;;;;;;;1.75;1.50;;;;;;;;5008082;28;13390;-70
2023/03/10 13:21:28;;;;;;;;;9.00;6.50;;;;;;;;4996732;28;13305;-69
2023/03/10 13:23:53;;;;;;;;;;;;;;;;;;4994185;28;8859;-69
2023/03/10 13:26:18;;;;;;;;;4.00;1.75;;;;;;;;4992280;28;8797;-69
2023/03/10 13:28:51;;;;;;;;;10.50;6.00;;;;;;;;4986529;28;14341;-70
2023/03/10 13:31:19;;;;;;;;;5.00;5.00;;;;;;;;4988294;28;13537;-70
2023/03/10 13:33:45;;;;;;;;;4.75;4.00;;;;;;;;4988330;28;13555;-69
2023/03/10 13:36:20;;;;;;;;;7.00;5.00;;;;;;;;4987714;28;13513;-69
2023/03/10 13:38:46;;;;;;;;;11.60;5.60;;;;;;;;4973558;28;13564;-73
2023/03/10 13:41:11;;;;;;;;;5.75;4.00;;;;;;;;4992462;28;13536;-69
2023/03/10 13:43:44;;;;;;;;;5.50;4.50;;;;;;;;4987458;28;13677;-69
2023/03/10 13:46:15;;;;;;;;;8.67;3.00;;;;;;;;4978869;28;14276;-69
2023/03/10 13:48:41;;;;;;;;;12.50;6.00;;;;;;;;4987771;28;14210;-69
2023/03/10 13:51:15;;;;;;;;;7.75;2.00;;;;;;;;4991575;28;8834;-70
2023/03/10 13:53:40;;;;;;;;;10.75;5.75;;;;;;;;4988052;28;13494;-69
2023/03/10 13:56:05;;;;;;;;;;;;;;;;;;4992260;28;8802;-70
2023/03/10 13:58:30;;;;;;;;;2.80;1.40;;;;;;;;4978156;28;7554;-69
2023/03/10 14:00:59;;;;;;;;;9.50;3.00;;;;;;;;4988088;28;13731;-69
2023/03/10 14:03:24;;;;;;;;;11.20;6.00;;;;;;;;4987779;28;13574;-69
2023/03/10 14:05:50;;;;;;;;;5.33;3.67;;;;;;;;4986696;28;13561;-69
2023/03/10 14:08:20;;;;;;;;;10.33;7.67;;;;;;;;5002595;28;13562;-69
2023/03/10 14:10:45;;;;;;;;;5.00;4.25;;;;;;;;4992170;28;13658;-70
2023/03/10 14:13:29;;;;;;;;;8.75;4.50;;;;;;;;4987576;28;14188;-70
2023/03/10 14:15:54;;;;;;;;;6.50;2.00;;;;;;;;4991113;28;8781;-70
2023/03/10 14:18:20;;;;;;;;;7.00;5.00;;;;;;;;4986170;28;13975;-69
2023/03/10 14:20:46;;;;;;;;;4.25;2.00;;;;;;;;4987187;28;8842;-69
2023/03/10 14:23:17;;;;;;;;;7.50;3.75;;;;;;;;4986045;28;13565;-70
2023/03/10 14:25:43;;;;;;;;;8.00;8.00;;;;;;;;4984116;28;14231;-71
2023/03/10 14:28:13;;;;;;;;;8.00;6.00;;;;;;;;4985341;28;14183;-72
2023/03/10 14:30:40;;;;;;;;;11.00;5.25;;;;;;;;4987233;28;14318;-72
2023/03/10 14:33:10;;;;;;;;;5.00;4.00;;;;;;;;4987438;28;13542;-72
2023/03/10 14:35:35;;;;;;;;;6.20;5.00;;;;;;;;4986405;28;13652;-73
2023/03/10 14:38:00;;;;;;;;;4.00;3.00;;;;;;;;4995517;28;13637;-73
2023/03/10 14:40:25;;;;;;;;;8.50;5.00;;;;;;;;5003299;28;13649;-72
2023/03/10 14:42:51;;;;;;;;;;;;;;;;;;5011935;28;8842;-72
2023/03/10 14:45:16;;;;;;;;;;;;;;;;;;5009463;28;10506;-71
2023/03/10 14:47:41;;;;;;;;;;;;;;;;;;4992317;28;7613;-72
2023/03/10 14:50:08;;;;;;;;;7.00;2.40;;;;;;;;5005429;28;8829;-71